sensor_id;sensor_type;location;lat;lon;timestamp;pressure;altitude;pressure_sealevel;temperature;humidity
14242;BME280;7205;50.864;12.766;2023-05-24T00:00:37;97946.47;;;10.66;80.59
14242;BME280;7205;50.864;12.766;2023-05-24T00:03:05;97942.34;;;10.63;80.77
14242;BME280;7205;50.864;12.766;2023-05-24T00:05:32;97938.06;;;10.62;81.16
14242;BME280;7205;50.864;12.766;2023-05-24T00:08:02;97942.84;;;10.59;80.87
14242;BME280;7205;50.864;12.766;2023-05-24T00:10:29;97936.91;;;10.57;81.54
14242;BME280;7205;50.864;12.766;2023-05-24T00:12:56;97942.34;;;10.55;81.34
14242;BME280;7205;50.864;12.766;2023-05-24T00:15:24;97938.06;;;10.54;81.26
14242;BME280;7205;50.864;12.766;2023-05-24T00:17:51;97932.13;;;10.52;80.82
14242;BME280;7205;50.864;12.766;2023-05-24T00:20:18;97936.75;;;10.50;81.29
14242;BME280;7205;50.864;12.766;2023-05-24T00:22:45;97936.13;;;10.48;80.78
14242;BME280;7205;50.864;12.766;2023-05-24T00:25:12;97930.16;;;10.46;81.30
14242;BME280;7205;50.864;12.766;2023-05-24T00:27:38;97930.34;;;10.45;81.59
14242;BME280;7205;50.864;12.766;2023-05-24T00:30:07;97944.50;;;10.44;81.66
14242;BME280;7205;50.864;12.766;2023-05-24T00:32:35;97940.41;;;10.41;81.15
14242;BME280;7205;50.864;12.766;2023-05-24T00:35:02;97938.09;;;10.38;81.71
14242;BME280;7205;50.864;12.766;2023-05-24T00:37:30;97945.19;;;10.38;81.57
14242;BME280;7205;50.864;12.766;2023-05-24T00:39:57;97940.88;;;10.37;81.25
14242;BME280;7205;50.864;12.766;2023-05-24T00:42:24;97948.66;;;10.38;81.90
14242;BME280;7205;50.864;12.766;2023-05-24T00:44:51;97942.72;;;10.36;81.46
14242;BME280;7205;50.864;12.766;2023-05-24T00:47:18;97943.53;;;10.37;81.91
14242;BME280;7205;50.864;12.766;2023-05-24T00:49:46;97945.34;;;10.36;81.09
14242;BME280;7205;50.864;12.766;2023-05-24T00:52:13;97943.84;;;10.34;81.32
14242;BME280;7205;50.864;12.766;2023-05-24T00:54:40;97956.41;;;10.32;81.52
14242;BME280;7205;50.864;12.766;2023-05-24T00:57:10;97952.28;;;10.29;80.98
14242;BME280;7205;50.864;12.766;2023-05-24T00:59:38;97949.16;;;10.26;80.97
14242;BME280;7205;50.864;12.766;2023-05-24T01:02:05;97948.47;;;10.24;80.92
14242;BME280;7205;50.864;12.766;2023-05-24T01:04:32;97950.47;;;10.22;80.26
14242;BME280;7205;50.864;12.766;2023-05-24T01:07:10;97949.00;;;10.19;80.59
14242;BME280;7205;50.864;12.766;2023-05-24T01:09:50;97946.69;;;10.16;80.38
14242;BME280;7205;50.864;12.766;2023-05-24T01:12:26;97953.94;;;10.14;79.98
14242;BME280;7205;50.864;12.766;2023-05-24T01:15:00;97950.63;;;10.12;80.66
14242;BME280;7205;50.864;12.766;2023-05-24T01:17:35;97955.91;;;10.12;81.04
14242;BME280;7205;50.864;12.766;2023-05-24T01:20:08;97952.78;;;10.08;80.48
14242;BME280;7205;50.864;12.766;2023-05-24T01:25:47;97959.34;;;10.04;80.43
14242;BME280;7205;50.864;12.766;2023-05-24T01:28:17;97958.00;;;10.00;81.10
14242;BME280;7205;50.864;12.766;2023-05-24T01:30:44;97971.38;;;9.99;80.92
14242;BME280;7205;50.864;12.766;2023-05-24T01:33:11;97965.59;;;9.95;81.20
14242;BME280;7205;50.864;12.766;2023-05-24T01:35:39;97967.91;;;9.90;80.79
14242;BME280;7205;50.864;12.766;2023-05-24T01:38:07;97965.44;;;9.89;80.87
14242;BME280;7205;50.864;12.766;2023-05-24T01:40:37;97962.94;;;9.87;80.86
14242;BME280;7205;50.864;12.766;2023-05-24T01:43:14;97973.66;;;9.86;81.01
14242;BME280;7205;50.864;12.766;2023-05-24T01:45:51;97969.34;;;9.85;80.92
14242;BME280;7205;50.864;12.766;2023-05-24T01:48:24;97970.19;;;9.85;80.83
14242;BME280;7205;50.864;12.766;2023-05-24T01:50:57;97968.69;;;9.83;81.03
14242;BME280;7205;50.864;12.766;2023-05-24T01:53:25;97967.06;;;9.82;80.51
14242;BME280;7205;50.864;12.766;2023-05-24T01:55:56;97964.59;;;9.80;80.42
14242;BME280;7205;50.864;12.766;2023-05-24T01:58:25;97962.94;;;9.79;80.93
14242;BME280;7205;50.864;12.766;2023-05-24T02:00:55;97961.28;;;9.78;80.83
14242;BME280;7205;50.864;12.766;2023-05-24T02:03:23;97964.06;;;9.77;81.12
14242;BME280;7205;50.864;12.766;2023-05-24T02:05:50;97960.94;;;9.73;80.74
14242;BME280;7205;50.864;12.766;2023-05-24T02:08:17;97959.63;;;9.69;80.23
14242;BME280;7205;50.864;12.766;2023-05-24T02:10:44;97972.31;;;9.66;80.38
14242;BME280;7205;50.864;12.766;2023-05-24T02:13:10;97963.72;;;9.64;80.17
14242;BME280;7205;50.864;12.766;2023-05-24T02:15:38;97967.50;;;9.61;80.38
14242;BME280;7205;50.864;12.766;2023-05-24T02:18:11;97967.81;;;9.58;80.60
14242;BME280;7205;50.864;12.766;2023-05-24T02:20:38;97961.88;;;9.56;80.35
14242;BME280;7205;50.864;12.766;2023-05-24T02:23:05;97966.66;;;9.53;80.53
14242;BME280;7205;50.864;12.766;2023-05-24T02:25:32;97964.00;;;9.53;80.86
14242;BME280;7205;50.864;12.766;2023-05-24T02:27:59;97962.22;;;9.53;80.51
14242;BME280;7205;50.864;12.766;2023-05-24T02:30:26;97960.41;;;9.54;80.83
14242;BME280;7205;50.864;12.766;2023-05-24T02:32:53;97950.34;;;9.49;80.40
14242;BME280;7205;50.864;12.766;2023-05-24T02:35:22;97958.38;;;9.48;80.54
14242;BME280;7205;50.864;12.766;2023-05-24T02:37:48;97954.59;;;9.42;80.79
14242;BME280;7205;50.864;12.766;2023-05-24T02:40:15;97948.16;;;9.37;80.17
14242;BME280;7205;50.864;12.766;2023-05-24T02:42:42;97958.19;;;9.33;79.74
14242;BME280;7205;50.864;12.766;2023-05-24T02:45:09;97947.47;;;9.27;80.06
14242;BME280;7205;50.864;12.766;2023-05-24T02:47:36;97948.47;;;9.26;80.47
14242;BME280;7205;50.864;12.766;2023-05-24T02:50:04;97955.38;;;9.27;80.58
14242;BME280;7205;50.864;12.766;2023-05-24T02:52:32;97949.25;;;9.26;80.75
14242;BME280;7205;50.864;12.766;2023-05-24T02:55:00;97952.41;;;9.30;80.70
14242;BME280;7205;50.864;12.766;2023-05-24T02:57:29;97946.97;;;9.31;80.95
14242;BME280;7205;50.864;12.766;2023-05-24T02:59:59;97952.91;;;9.33;80.42
14242;BME280;7205;50.864;12.766;2023-05-24T03:02:25;97941.72;;;9.31;80.67
14242;BME280;7205;50.864;12.766;2023-05-24T03:04:53;97942.69;;;9.30;80.02
14242;BME280;7205;50.864;12.766;2023-05-24T03:07:19;97935.78;;;9.29;80.62
14242;BME280;7205;50.864;12.766;2023-05-24T03:09:48;97940.22;;;9.29;80.51
14242;BME280;7205;50.864;12.766;2023-05-24T03:12:14;97942.69;;;9.30;80.81
14242;BME280;7205;50.864;12.766;2023-05-24T03:14:44;97946.34;;;9.29;80.63
14242;BME280;7205;50.864;12.766;2023-05-24T03:17:11;97946.63;;;9.26;79.92
14242;BME280;7205;50.864;12.766;2023-05-24T03:19:38;97946.13;;;9.23;80.31
14242;BME280;7205;50.864;12.766;2023-05-24T03:22:05;97942.00;;;9.20;80.46
14242;BME280;7205;50.864;12.766;2023-05-24T03:24:32;97943.00;;;9.19;79.90
14242;BME280;7205;50.864;12.766;2023-05-24T03:27:03;97941.34;;;9.18;80.22
14242;BME280;7205;50.864;12.766;2023-05-24T03:29:31;97946.78;;;9.17;80.33
14242;BME280;7205;50.864;12.766;2023-05-24T03:31:57;97938.69;;;9.18;80.52
14242;BME280;7205;50.864;12.766;2023-05-24T03:34:24;97948.28;;;9.19;80.52
14242;BME280;7205;50.864;12.766;2023-05-24T03:36:52;97943.47;;;9.23;80.43
14242;BME280;7205;50.864;12.766;2023-05-24T03:39:18;97942.34;;;9.25;80.74
14242;BME280;7205;50.864;12.766;2023-05-24T03:42:08;97952.72;;;9.27;79.99
14242;BME280;7205;50.864;12.766;2023-05-24T03:44:35;97950.09;;;9.27;79.50
14242;BME280;7205;50.864;12.766;2023-05-24T03:47:05;97959.63;;;9.28;79.76
14242;BME280;7205;50.864;12.766;2023-05-24T03:49:32;97953.41;;;9.29;79.30
14242;BME280;7205;50.864;12.766;2023-05-24T03:52:00;97950.28;;;9.33;79.43
14242;BME280;7205;50.864;12.766;2023-05-24T03:54:27;97957.88;;;9.36;79.78
14242;BME280;7205;50.864;12.766;2023-05-24T03:56:54;97957.69;;;9.38;79.09
14242;BME280;7205;50.864;12.766;2023-05-24T03:59:24;97954.44;;;9.36;78.28
14242;BME280;7205;50.864;12.766;2023-05-24T04:01:51;97958.03;;;9.35;77.85
14242;BME280;7205;50.864;12.766;2023-05-24T04:04:19;97968.56;;;9.35;77.92
14242;BME280;7205;50.864;12.766;2023-05-24T04:06:45;97966.09;;;9.33;78.01
14242;BME280;7205;50.864;12.766;2023-05-24T04:09:14;97960.00;;;9.33;77.46
14242;BME280;7205;50.864;12.766;2023-05-24T04:11:41;97972.19;;;9.34;77.99
14242;BME280;7205;50.864;12.766;2023-05-24T04:14:10;97969.56;;;9.34;77.97
14242;BME280;7205;50.864;12.766;2023-05-24T04:16:38;97965.78;;;9.36;77.87
14242;BME280;7205;50.864;12.766;2023-05-24T04:19:06;97968.13;;;9.39;77.78
14242;BME280;7205;50.864;12.766;2023-05-24T04:21:33;97972.91;;;9.44;78.10
14242;BME280;7205;50.864;12.766;2023-05-24T04:24:01;97969.94;;;9.47;77.79
14242;BME280;7205;50.864;12.766;2023-05-24T04:26:28;97979.19;;;9.51;77.59
14242;BME280;7205;50.864;12.766;2023-05-24T04:28:57;97973.44;;;9.55;77.75
14242;BME280;7205;50.864;12.766;2023-05-24T04:31:24;97984.47;;;9.59;77.65
14242;BME280;7205;50.864;12.766;2023-05-24T04:33:56;97978.88;;;9.62;77.29
14242;BME280;7205;50.864;12.766;2023-05-24T04:36:24;97985.66;;;9.64;77.38
14242;BME280;7205;50.864;12.766;2023-05-24T04:38:50;97986.47;;;9.65;76.92
14242;BME280;7205;50.864;12.766;2023-05-24T04:41:20;97986.47;;;9.65;76.60
14242;BME280;7205;50.864;12.766;2023-05-24T04:43:48;97984.81;;;9.64;76.03
14242;BME280;7205;50.864;12.766;2023-05-24T04:46:15;97979.53;;;9.64;76.50
14242;BME280;7205;50.864;12.766;2023-05-24T04:48:42;97991.56;;;9.66;76.57
14242;BME280;7205;50.864;12.766;2023-05-24T04:51:10;97996.38;;;9.71;76.20
14242;BME280;7205;50.864;12.766;2023-05-24T04:53:37;97995.38;;;9.72;76.75
14242;BME280;7205;50.864;12.766;2023-05-24T04:56:04;97996.22;;;9.72;76.14
14242;BME280;7205;50.864;12.766;2023-05-24T04:58:31;98005.09;;;9.71;75.87
14242;BME280;7205;50.864;12.766;2023-05-24T05:00:58;98007.09;;;9.69;75.68
14242;BME280;7205;50.864;12.766;2023-05-24T05:03:25;98007.09;;;9.69;74.99
14242;BME280;7205;50.864;12.766;2023-05-24T05:05:52;98011.19;;;9.72;76.30
14242;BME280;7205;50.864;12.766;2023-05-24T05:08:20;98012.38;;;9.77;76.05
14242;BME280;7205;50.864;12.766;2023-05-24T05:10:47;98013.84;;;9.80;75.90
14242;BME280;7205;50.864;12.766;2023-05-24T05:13:13;98018.97;;;9.81;75.19
14242;BME280;7205;50.864;12.766;2023-05-24T05:15:40;98016.84;;;9.85;75.18
14242;BME280;7205;50.864;12.766;2023-05-24T05:18:07;98022.44;;;9.90;75.02
14242;BME280;7205;50.864;12.766;2023-05-24T05:20:34;98024.91;;;9.91;74.06
14242;BME280;7205;50.864;12.766;2023-05-24T05:23:00;98032.53;;;9.94;74.37
14242;BME280;7205;50.864;12.766;2023-05-24T05:25:29;98033.34;;;9.95;74.06
14242;BME280;7205;50.864;12.766;2023-05-24T05:27:55;98032.03;;;9.99;73.68
14242;BME280;7205;50.864;12.766;2023-05-24T05:30:22;98023.97;;;10.00;73.50
14242;BME280;7205;50.864;12.766;2023-05-24T05:32:49;98028.91;;;10.03;72.71
14242;BME280;7205;50.864;12.766;2023-05-24T05:35:16;98035.19;;;10.02;72.02
14242;BME280;7205;50.864;12.766;2023-05-24T05:37:42;98030.06;;;10.01;72.28
14242;BME280;7205;50.864;12.766;2023-05-24T05:40:10;98028.91;;;10.03;72.05
14242;BME280;7205;50.864;12.766;2023-05-24T05:42:38;98023.16;;;10.08;72.43
14242;BME280;7205;50.864;12.766;2023-05-24T05:45:06;98034.72;;;10.15;72.20
14242;BME280;7205;50.864;12.766;2023-05-24T05:47:34;98030.28;;;10.24;71.79
14242;BME280;7205;50.864;12.766;2023-05-24T05:50:00;98041.03;;;10.30;70.91
14242;BME280;7205;50.864;12.766;2023-05-24T05:52:27;98032.31;;;10.30;70.03
14242;BME280;7205;50.864;12.766;2023-05-24T05:54:54;98032.94;;;10.32;69.58
14242;BME280;7205;50.864;12.766;2023-05-24T05:57:21;98036.06;;;10.35;69.19
14242;BME280;7205;50.864;12.766;2023-05-24T05:59:50;98038.75;;;10.43;69.27
14242;BME280;7205;50.864;12.766;2023-05-24T06:02:17;98038.41;;;10.54;69.60
14242;BME280;7205;50.864;12.766;2023-05-24T06:04:44;98036.59;;;10.63;68.64
14242;BME280;7205;50.864;12.766;2023-05-24T06:07:11;98037.75;;;10.68;68.23
14242;BME280;7205;50.864;12.766;2023-05-24T06:09:37;98038.22;;;10.72;68.56
14242;BME280;7205;50.864;12.766;2023-05-24T06:12:04;98044.31;;;10.80;68.32
14242;BME280;7205;50.864;12.766;2023-05-24T06:14:31;98051.78;;;10.85;67.89
14242;BME280;7205;50.864;12.766;2023-05-24T06:17:00;98051.59;;;10.86;66.77
14242;BME280;7205;50.864;12.766;2023-05-24T06:19:30;98054.25;;;10.86;66.38
14242;BME280;7205;50.864;12.766;2023-05-24T06:22:00;98055.06;;;10.87;65.74
14242;BME280;7205;50.864;12.766;2023-05-24T06:24:27;98054.06;;;10.88;66.05
14242;BME280;7205;50.864;12.766;2023-05-24T06:26:54;98058.84;;;10.92;65.32
14242;BME280;7205;50.864;12.766;2023-05-24T06:29:23;98058.84;;;10.92;65.05
14242;BME280;7205;50.864;12.766;2023-05-24T06:31:52;98059.19;;;10.97;64.85
14242;BME280;7205;50.864;12.766;2023-05-24T06:34:22;98062.81;;;10.96;64.44
14242;BME280;7205;50.864;12.766;2023-05-24T06:36:51;98055.22;;;10.93;63.77
14242;BME280;7205;50.864;12.766;2023-05-24T06:39:18;98062.66;;;10.98;63.69
14242;BME280;7205;50.864;12.766;2023-05-24T06:41:45;98060.00;;;10.98;63.98
14242;BME280;7205;50.864;12.766;2023-05-24T06:44:12;98054.88;;;11.04;63.92
14242;BME280;7205;50.864;12.766;2023-05-24T06:46:41;98058.69;;;11.10;63.23
14242;BME280;7205;50.864;12.766;2023-05-24T06:49:08;98054.84;;;11.12;63.60
14242;BME280;7205;50.864;12.766;2023-05-24T06:51:45;98069.72;;;11.21;63.92
14242;BME280;7205;50.864;12.766;2023-05-24T06:54:17;98058.28;;;11.29;63.64
14242;BME280;7205;50.864;12.766;2023-05-24T06:56:47;98067.69;;;11.39;63.47
14242;BME280;7205;50.864;12.766;2023-05-24T06:59:16;98072.13;;;11.39;61.35
14242;BME280;7205;50.864;12.766;2023-05-24T07:01:45;98058.28;;;11.29;61.02
14242;BME280;7205;50.864;12.766;2023-05-24T07:04:13;98063.25;;;11.24;61.34
14242;BME280;7205;50.864;12.766;2023-05-24T07:06:40;98069.53;;;11.23;61.46
14242;BME280;7205;50.864;12.766;2023-05-24T07:09:08;98067.06;;;11.21;61.55
14242;BME280;7205;50.864;12.766;2023-05-24T07:11:35;98065.91;;;11.16;61.76
14242;BME280;7205;50.864;12.766;2023-05-24T07:14:06;98067.41;;;11.18;62.05
14242;BME280;7205;50.864;12.766;2023-05-24T07:16:33;98067.88;;;11.22;62.31
14242;BME280;7205;50.864;12.766;2023-05-24T07:19:02;98061.94;;;11.28;61.90
14242;BME280;7205;50.864;12.766;2023-05-24T07:21:32;98066.03;;;11.38;62.41
14242;BME280;7205;50.864;12.766;2023-05-24T07:24:05;98068.47;;;11.56;62.91
14242;BME280;7205;50.864;12.766;2023-05-24T07:26:33;98072.41;;;11.68;61.21
14242;BME280;7205;50.864;12.766;2023-05-24T07:29:06;98072.38;;;11.76;60.63
14242;BME280;7205;50.864;12.766;2023-05-24T07:31:35;98073.69;;;11.80;60.25
14242;BME280;7205;50.864;12.766;2023-05-24T07:34:02;98077.13;;;11.89;59.53
14242;BME280;7205;50.864;12.766;2023-05-24T07:36:29;98078.38;;;12.01;59.48
14242;BME280;7205;50.864;12.766;2023-05-24T07:39:00;98082.94;;;12.15;58.78
14242;BME280;7205;50.864;12.766;2023-05-24T07:41:29;98085.00;;;12.27;57.46
14242;BME280;7205;50.864;12.766;2023-05-24T07:43:59;98091.78;;;12.30;55.85
14242;BME280;7205;50.864;12.766;2023-05-24T07:46:26;98081.72;;;12.25;55.30
14242;BME280;7205;50.864;12.766;2023-05-24T07:48:53;98083.72;;;12.23;55.22
14242;BME280;7205;50.864;12.766;2023-05-24T07:51:19;98086.91;;;12.19;54.85
14242;BME280;7205;50.864;12.766;2023-05-24T07:53:47;98087.22;;;12.16;55.29
14242;BME280;7205;50.864;12.766;2023-05-24T07:56:13;98083.44;;;12.18;55.70
14242;BME280;7205;50.864;12.766;2023-05-24T07:58:40;98082.41;;;12.19;55.36
14242;BME280;7205;50.864;12.766;2023-05-24T08:01:14;98076.75;;;12.30;55.85
14242;BME280;7205;50.864;12.766;2023-05-24T08:03:42;98077.75;;;12.52;56.24
14242;BME280;7205;50.864;12.766;2023-05-24T08:06:10;98076.09;;;12.74;55.68
14242;BME280;7205;50.864;12.766;2023-05-24T08:08:38;98081.44;;;12.88;54.45
14242;BME280;7205;50.864;12.766;2023-05-24T08:11:07;98086.50;;;12.98;54.04
14242;BME280;7205;50.864;12.766;2023-05-24T08:13:34;98076.50;;;13.08;54.07
14242;BME280;7205;50.864;12.766;2023-05-24T08:16:01;98087.81;;;13.16;53.81
14242;BME280;7205;50.864;12.766;2023-05-24T08:18:29;98076.16;;;13.25;53.78
14242;BME280;7205;50.864;12.766;2023-05-24T08:20:56;98076.34;;;13.38;53.75
14242;BME280;7205;50.864;12.766;2023-05-24T08:23:23;98076.66;;;13.58;54.16
14242;BME280;7205;50.864;12.766;2023-05-24T08:25:49;98078.63;;;13.70;52.78
14242;BME280;7205;50.864;12.766;2023-05-24T08:28:17;98077.28;;;13.74;51.97
14242;BME280;7205;50.864;12.766;2023-05-24T08:30:44;98081.00;;;13.80;51.66
14242;BME280;7205;50.864;12.766;2023-05-24T08:33:11;98083.94;;;13.85;51.56
14242;BME280;7205;50.864;12.766;2023-05-24T08:35:40;98081.34;;;13.92;51.61
14242;BME280;7205;50.864;12.766;2023-05-24T08:38:08;98078.88;;;13.90;50.76
14242;BME280;7205;50.864;12.766;2023-05-24T08:40:34;98080.94;;;13.88;50.47
14242;BME280;7205;50.864;12.766;2023-05-24T08:43:01;98078.88;;;13.90;50.86
14242;BME280;7205;50.864;12.766;2023-05-24T08:45:29;98082.06;;;14.00;50.98
14242;BME280;7205;50.864;12.766;2023-05-24T08:47:57;98086.66;;;14.06;49.91
14242;BME280;7205;50.864;12.766;2023-05-24T08:50:25;98084.28;;;14.11;49.69
14242;BME280;7205;50.864;12.766;2023-05-24T08:52:58;98085.72;;;14.14;48.94
14242;BME280;7205;50.864;12.766;2023-05-24T08:55:27;98090.75;;;14.09;48.88
14242;BME280;7205;50.864;12.766;2023-05-24T08:57:54;98092.34;;;14.03;48.89
14242;BME280;7205;50.864;12.766;2023-05-24T09:00:22;98095.81;;;14.04;48.96
14242;BME280;7205;50.864;12.766;2023-05-24T09:02:49;98093.41;;;14.09;49.22
14242;BME280;7205;50.864;12.766;2023-05-24T09:05:15;98102.69;;;14.13;48.94
14242;BME280;7205;50.864;12.766;2023-05-24T09:07:48;98105.13;;;14.14;48.78
14242;BME280;7205;50.864;12.766;2023-05-24T09:10:19;98108.38;;;14.10;48.25
14242;BME280;7205;50.864;12.766;2023-05-24T09:12:50;98100.94;;;14.05;47.85
14242;BME280;7205;50.864;12.766;2023-05-24T09:15:20;98099.38;;;14.11;48.07
14242;BME280;7205;50.864;12.766;2023-05-24T09:17:47;98092.50;;;14.16;47.58
14242;BME280;7205;50.864;12.766;2023-05-24T09:20:14;98099.03;;;14.28;47.36
14242;BME280;7205;50.864;12.766;2023-05-24T09:22:41;98089.53;;;14.40;47.37
14242;BME280;7205;50.864;12.766;2023-05-24T09:25:11;98090.31;;;14.55;46.91
14242;BME280;7205;50.864;12.766;2023-05-24T09:27:39;98084.31;;;14.68;46.50
14242;BME280;7205;50.864;12.766;2023-05-24T09:30:08;98089.41;;;14.90;47.01
14242;BME280;7205;50.864;12.766;2023-05-24T09:32:36;98094.53;;;15.13;46.38
14242;BME280;7205;50.864;12.766;2023-05-24T09:35:07;98102.66;;;15.33;45.95
14242;BME280;7205;50.864;12.766;2023-05-24T09:37:35;98097.06;;;15.42;45.45
14242;BME280;7205;50.864;12.766;2023-05-24T09:40:03;98115.72;;;15.49;44.67
14242;BME280;7205;50.864;12.766;2023-05-24T09:42:31;98120.41;;;15.47;44.54
14242;BME280;7205;50.864;12.766;2023-05-24T09:45:00;98113.81;;;15.43;44.06
14242;BME280;7205;50.864;12.766;2023-05-24T09:47:30;98111.19;;;15.49;44.10
14242;BME280;7205;50.864;12.766;2023-05-24T09:49:58;98108.03;;;15.60;43.94
14242;BME280;7205;50.864;12.766;2023-05-24T09:52:24;98115.44;;;15.71;43.88
14242;BME280;7205;50.864;12.766;2023-05-24T09:54:51;98124.91;;;15.74;43.64
14242;BME280;7205;50.864;12.766;2023-05-24T09:57:18;98117.25;;;15.64;42.80
14242;BME280;7205;50.864;12.766;2023-05-24T09:59:48;98108.19;;;15.52;43.06
14242;BME280;7205;50.864;12.766;2023-05-24T10:02:16;98111.63;;;15.53;43.92
14242;BME280;7205;50.864;12.766;2023-05-24T10:04:44;98102.28;;;15.63;43.86
14242;BME280;7205;50.864;12.766;2023-05-24T10:07:11;98103.41;;;15.75;43.81
14242;BME280;7205;50.864;12.766;2023-05-24T10:09:39;98104.31;;;15.89;44.02
14242;BME280;7205;50.864;12.766;2023-05-24T10:12:07;98104.34;;;16.02;44.07
14242;BME280;7205;50.864;12.766;2023-05-24T10:14:35;98103.44;;;16.22;44.46
14242;BME280;7205;50.864;12.766;2023-05-24T10:17:02;98102.66;;;16.42;44.15
14242;BME280;7205;50.864;12.766;2023-05-24T10:19:31;98095.56;;;16.62;43.55
14242;BME280;7205;50.864;12.766;2023-05-24T10:21:59;98111.22;;;16.78;43.43
14242;BME280;7205;50.864;12.766;2023-05-24T10:24:31;98099.50;;;16.85;43.02
14242;BME280;7205;50.864;12.766;2023-05-24T10:27:00;98116.78;;;16.89;42.73
14242;BME280;7205;50.864;12.766;2023-05-24T10:29:35;98111.22;;;16.84;42.49
14242;BME280;7205;50.864;12.766;2023-05-24T10:32:06;98114.09;;;16.83;42.34
14242;BME280;7205;50.864;12.766;2023-05-24T10:34:36;98112.44;;;16.82;41.71
14242;BME280;7205;50.864;12.766;2023-05-24T10:37:04;98116.75;;;16.83;42.07
14242;BME280;7205;50.864;12.766;2023-05-24T10:39:32;98123.53;;;16.85;41.97
14242;BME280;7205;50.864;12.766;2023-05-24T10:42:01;98122.09;;;16.83;41.70
14242;BME280;7205;50.864;12.766;2023-05-24T10:44:28;98121.47;;;16.81;41.88
14242;BME280;7205;50.864;12.766;2023-05-24T10:47:09;98121.06;;;16.77;41.87
14242;BME280;7205;50.864;12.766;2023-05-24T10:49:38;98115.06;;;16.69;41.88
14242;BME280;7205;50.864;12.766;2023-05-24T10:52:12;98108.88;;;16.49;41.96
14242;BME280;7205;50.864;12.766;2023-05-24T10:54:40;98113.06;;;16.23;41.81
14242;BME280;7205;50.864;12.766;2023-05-24T10:57:07;98100.03;;;16.01;42.37
14242;BME280;7205;50.864;12.766;2023-05-24T10:59:35;98109.00;;;15.87;41.81
14242;BME280;7205;50.864;12.766;2023-05-24T11:02:05;98104.25;;;15.82;42.26
14242;BME280;7205;50.864;12.766;2023-05-24T11:04:39;98114.94;;;15.89;42.43
14242;BME280;7205;50.864;12.766;2023-05-24T11:07:08;98125.66;;;16.02;42.67
14242;BME280;7205;50.864;12.766;2023-05-24T11:09:36;98121.81;;;16.11;42.41
14242;BME280;7205;50.864;12.766;2023-05-24T11:12:06;98114.69;;;16.24;42.11
14242;BME280;7205;50.864;12.766;2023-05-24T11:14:35;98111.66;;;16.34;41.27
14242;BME280;7205;50.864;12.766;2023-05-24T11:17:05;98101.44;;;16.44;42.30
14242;BME280;7205;50.864;12.766;2023-05-24T11:19:34;98110.56;;;16.63;42.56
14242;BME280;7205;50.864;12.766;2023-05-24T11:22:05;98101.97;;;16.80;41.50
14242;BME280;7205;50.864;12.766;2023-05-24T11:24:32;98098.50;;;16.93;41.33
14242;BME280;7205;50.864;12.766;2023-05-24T11:27:00;98104.06;;;17.11;41.17
14242;BME280;7205;50.864;12.766;2023-05-24T11:29:28;98095.22;;;17.17;40.90
14242;BME280;7205;50.864;12.766;2023-05-24T11:31:58;98090.09;;;17.22;41.32
14242;BME280;7205;50.864;12.766;2023-05-24T11:34:29;98100.56;;;17.30;40.59
14242;BME280;7205;50.864;12.766;2023-05-24T11:36:56;98099.53;;;17.31;40.42
14242;BME280;7205;50.864;12.766;2023-05-24T11:39:29;98096.88;;;17.31;40.76
14242;BME280;7205;50.864;12.766;2023-05-24T11:41:57;98103.00;;;17.31;40.34
14242;BME280;7205;50.864;12.766;2023-05-24T11:44:25;98106.94;;;17.16;39.96
14242;BME280;7205;50.864;12.766;2023-05-24T11:46:57;98096.22;;;16.90;40.18
14242;BME280;7205;50.864;12.766;2023-05-24T11:49:25;98091.72;;;16.77;40.95
14242;BME280;7205;50.864;12.766;2023-05-24T11:51:53;98092.13;;;16.81;41.58
14242;BME280;7205;50.864;12.766;2023-05-24T11:54:20;98123.94;;;16.89;40.85
14242;BME280;7205;50.864;12.766;2023-05-24T11:56:49;98108.34;;;16.79;40.61
14242;BME280;7205;50.864;12.766;2023-05-24T11:59:21;98111.16;;;16.58;40.09
14242;BME280;7205;50.864;12.766;2023-05-24T12:01:56;98106.53;;;16.33;40.29
14242;BME280;7205;50.864;12.766;2023-05-24T12:04:23;98104.00;;;16.18;40.42
14242;BME280;7205;50.864;12.766;2023-05-24T12:06:50;98102.19;;;16.18;40.88
14242;BME280;7205;50.864;12.766;2023-05-24T12:09:16;98105.91;;;16.30;41.47
14242;BME280;7205;50.864;12.766;2023-05-24T12:11:46;98103.75;;;16.47;41.18
14242;BME280;7205;50.864;12.766;2023-05-24T12:14:15;98099.09;;;16.75;41.73
14242;BME280;7205;50.864;12.766;2023-05-24T12:16:43;98106.50;;;16.93;40.48
14242;BME280;7205;50.864;12.766;2023-05-24T12:19:16;98109.78;;;16.95;40.34
14242;BME280;7205;50.864;12.766;2023-05-24T12:21:47;98105.88;;;16.91;39.71
14242;BME280;7205;50.864;12.766;2023-05-24T12:24:16;98107.94;;;16.82;39.81
14242;BME280;7205;50.864;12.766;2023-05-24T12:26:46;98101.56;;;16.77;40.06
14242;BME280;7205;50.864;12.766;2023-05-24T12:29:15;98112.63;;;16.67;40.37
14242;BME280;7205;50.864;12.766;2023-05-24T12:31:44;98114.25;;;16.62;40.44
14242;BME280;7205;50.864;12.766;2023-05-24T12:34:13;98106.22;;;16.55;40.64
14242;BME280;7205;50.864;12.766;2023-05-24T12:36:41;98099.47;;;16.53;40.91
14242;BME280;7205;50.864;12.766;2023-05-24T12:39:18;98093.31;;;16.65;41.81
14242;BME280;7205;50.864;12.766;2023-05-24T12:41:49;98093.13;;;16.80;40.80
14242;BME280;7205;50.864;12.766;2023-05-24T12:44:21;98101.34;;;16.78;40.07
14242;BME280;7205;50.864;12.766;2023-05-24T12:46:48;98104.41;;;16.75;40.11
14242;BME280;7205;50.864;12.766;2023-05-24T12:49:17;98100.13;;;16.68;39.84
14242;BME280;7205;50.864;12.766;2023-05-24T12:51:44;98102.34;;;16.58;40.07
14242;BME280;7205;50.864;12.766;2023-05-24T12:54:11;98103.34;;;16.50;40.28
14242;BME280;7205;50.864;12.766;2023-05-24T12:56:37;98101.06;;;16.47;40.47
14242;BME280;7205;50.864;12.766;2023-05-24T12:59:04;98103.13;;;16.52;40.53
14242;BME280;7205;50.864;12.766;2023-05-24T13:01:32;98107.69;;;16.64;40.85
14242;BME280;7205;50.864;12.766;2023-05-24T13:04:00;98085.34;;;16.78;40.02
14242;BME280;7205;50.864;12.766;2023-05-24T13:06:26;98093.38;;;16.98;40.65
14242;BME280;7205;50.864;12.766;2023-05-24T13:08:53;98101.41;;;17.17;40.65
14242;BME280;7205;50.864;12.766;2023-05-24T13:11:20;98100.16;;;17.33;40.23